sensor_id;sensor_type;location;lat;lon;timestamp;P1;durP1;ratioP1;P2;durP2;ratioP2
73850;SDS011;62190;51.548;5.688;2023-04-25T00:01:31;13.43;;;4.30;;
73850;SDS011;62190;51.548;5.688;2023-04-25T00:04:00;10.23;;;4.35;;
73850;SDS011;62190;51.548;5.688;2023-04-25T00:06:28;8.60;;;3.72;;
73850;SDS011;62190;51.548;5.688;2023-04-25T00:08:57;13.03;;;4.92;;
73850;SDS011;62190;51.548;5.688;2023-04-25T00:11:24;19.23;;;5.20;;
73850;SDS011;62190;51.548;5.688;2023-04-25T00:13:52;11.38;;;4.30;;
73850;SDS011;62190;51.548;5.688;2023-04-25T00:16:21;12.20;;;4.15;;
73850;SDS011;62190;51.548;5.688;2023-04-25T00:18:51;11.15;;;4.47;;
73850;SDS011;62190;51.548;5.688;2023-04-25T00:21:19;16.65;;;4.22;;
73850;SDS011;62190;51.548;5.688;2023-04-25T00:23:49;12.37;;;4.12;;
73850;SDS011;62190;51.548;5.688;2023-04-25T00:26:16;15.78;;;4.35;;
73850;SDS011;62190;51.548;5.688;2023-04-25T00:28:44;14.95;;;4.03;;
73850;SDS011;62190;51.548;5.688;2023-04-25T00:31:11;14.55;;;4.72;;
73850;SDS011;62190;51.548;5.688;2023-04-25T00:33:40;17.32;;;5.17;;
73850;SDS011;62190;51.548;5.688;2023-04-25T00:36:07;14.65;;;4.37;;
73850;SDS011;62190;51.548;5.688;2023-04-25T00:38:35;19.07;;;4.90;;
73850;SDS011;62190;51.548;5.688;2023-04-25T00:41:05;12.28;;;4.17;;
73850;SDS011;62190;51.548;5.688;2023-04-25T00:43:33;15.48;;;4.58;;
73850;SDS011;62190;51.548;5.688;2023-04-25T00:46:01;13.35;;;4.47;;
73850;SDS011;62190;51.548;5.688;2023-04-25T00:48:28;13.58;;;5.12;;
73850;SDS011;62190;51.548;5.688;2023-04-25T00:50:57;13.62;;;4.87;;
73850;SDS011;62190;51.548;5.688;2023-04-25T00:53:27;12.98;;;5.33;;
73850;SDS011;62190;51.548;5.688;2023-04-25T00:55:54;18.02;;;4.97;;
73850;SDS011;62190;51.548;5.688;2023-04-25T00:58:22;10.68;;;4.30;;
73850;SDS011;62190;51.548;5.688;2023-04-25T01:00:52;13.60;;;4.30;;
73850;SDS011;62190;51.548;5.688;2023-04-25T01:03:19;12.75;;;4.75;;
73850;SDS011;62190;51.548;5.688;2023-04-25T01:05:47;18.62;;;6.08;;
73850;SDS011;62190;51.548;5.688;2023-04-25T01:08:15;11.70;;;4.62;;
73850;SDS011;62190;51.548;5.688;2023-04-25T01:10:43;12.50;;;3.95;;
73850;SDS011;62190;51.548;5.688;2023-04-25T01:13:10;15.75;;;5.60;;
73850;SDS011;62190;51.548;5.688;2023-04-25T01:15:37;11.75;;;4.50;;
73850;SDS011;62190;51.548;5.688;2023-04-25T01:18:05;19.98;;;5.58;;
73850;SDS011;62190;51.548;5.688;2023-04-25T01:20:32;13.50;;;4.67;;
73850;SDS011;62190;51.548;5.688;2023-04-25T01:23:00;13.70;;;4.55;;
73850;SDS011;62190;51.548;5.688;2023-04-25T01:25:29;14.70;;;4.12;;
73850;SDS011;62190;51.548;5.688;2023-04-25T01:27:57;14.18;;;4.33;;
73850;SDS011;62190;51.548;5.688;2023-04-25T01:30:27;10.70;;;4.00;;
73850;SDS011;62190;51.548;5.688;2023-04-25T01:32:56;15.18;;;4.55;;
73850;SDS011;62190;51.548;5.688;2023-04-25T01:35:23;20.35;;;4.92;;
73850;SDS011;62190;51.548;5.688;2023-04-25T01:37:51;18.40;;;4.80;;
73850;SDS011;62190;51.548;5.688;2023-04-25T01:40:18;15.63;;;4.92;;
73850;SDS011;62190;51.548;5.688;2023-04-25T01:42:48;17.10;;;5.62;;
73850;SDS011;62190;51.548;5.688;2023-04-25T01:45:16;14.25;;;5.10;;
73850;SDS011;62190;51.548;5.688;2023-04-25T01:47:45;15.70;;;4.67;;
73850;SDS011;62190;51.548;5.688;2023-04-25T01:50:16;15.32;;;4.65;;
73850;SDS011;62190;51.548;5.688;2023-04-25T01:52:44;16.35;;;4.42;;
73850;SDS011;62190;51.548;5.688;2023-04-25T01:55:13;17.45;;;4.92;;
73850;SDS011;62190;51.548;5.688;2023-04-25T01:57:42;15.70;;;5.00;;
73850;SDS011;62190;51.548;5.688;2023-04-25T02:00:09;15.90;;;5.22;;
73850;SDS011;62190;51.548;5.688;2023-04-25T02:02:37;16.35;;;5.70;;
73850;SDS011;62190;51.548;5.688;2023-04-25T02:05:07;21.65;;;5.87;;
73850;SDS011;62190;51.548;5.688;2023-04-25T02:07:34;13.72;;;4.95;;
73850;SDS011;62190;51.548;5.688;2023-04-25T02:10:02;17.90;;;4.83;;
73850;SDS011;62190;51.548;5.688;2023-04-25T02:12:30;14.93;;;5.40;;
73850;SDS011;62190;51.548;5.688;2023-04-25T02:14:57;18.35;;;5.25;;
73850;SDS011;62190;51.548;5.688;2023-04-25T02:17:26;15.05;;;5.15;;
73850;SDS011;62190;51.548;5.688;2023-04-25T02:19:54;22.05;;;7.72;;
73850;SDS011;62190;51.548;5.688;2023-04-25T02:22:21;20.80;;;5.92;;
73850;SDS011;62190;51.548;5.688;2023-04-25T02:24:48;15.50;;;5.58;;
73850;SDS011;62190;51.548;5.688;2023-04-25T02:27:16;21.17;;;6.25;;
73850;SDS011;62190;51.548;5.688;2023-04-25T02:29:44;14.68;;;5.17;;
73850;SDS011;62190;51.548;5.688;2023-04-25T02:32:11;16.75;;;6.42;;
73850;SDS011;62190;51.548;5.688;2023-04-25T02:34:41;17.75;;;5.83;;
73850;SDS011;62190;51.548;5.688;2023-04-25T02:37:08;19.65;;;5.78;;
73850;SDS011;62190;51.548;5.688;2023-04-25T02:39:35;14.50;;;6.03;;
73850;SDS011;62190;51.548;5.688;2023-04-25T02:42:07;20.05;;;5.60;;
73850;SDS011;62190;51.548;5.688;2023-04-25T02:44:34;21.10;;;5.35;;
73850;SDS011;62190;51.548;5.688;2023-04-25T02:47:01;13.03;;;5.03;;
73850;SDS011;62190;51.548;5.688;2023-04-25T02:49:29;17.67;;;5.72;;
73850;SDS011;62190;51.548;5.688;2023-04-25T02:51:56;16.52;;;5.35;;
73850;SDS011;62190;51.548;5.688;2023-04-25T02:54:25;17.23;;;5.90;;
73850;SDS011;62190;51.548;5.688;2023-04-25T02:56:52;22.40;;;6.28;;
73850;SDS011;62190;51.548;5.688;2023-04-25T02:59:20;17.52;;;6.00;;
73850;SDS011;62190;51.548;5.688;2023-04-25T03:01:49;16.85;;;5.15;;
73850;SDS011;62190;51.548;5.688;2023-04-25T03:04:17;16.00;;;5.85;;
73850;SDS011;62190;51.548;5.688;2023-04-25T03:06:44;27.15;;;7.65;;
73850;SDS011;62190;51.548;5.688;2023-04-25T03:09:13;19.55;;;5.95;;
73850;SDS011;62190;51.548;5.688;2023-04-25T03:11:42;11.43;;;5.47;;
73850;SDS011;62190;51.548;5.688;2023-04-25T03:14:10;19.40;;;5.80;;
73850;SDS011;62190;51.548;5.688;2023-04-25T03:16:40;15.18;;;6.15;;
73850;SDS011;62190;51.548;5.688;2023-04-25T03:19:08;18.92;;;5.62;;
73850;SDS011;62190;51.548;5.688;2023-04-25T03:21:37;21.05;;;6.25;;
73850;SDS011;62190;51.548;5.688;2023-04-25T03:24:06;19.42;;;6.20;;
73850;SDS011;62190;51.548;5.688;2023-04-25T03:26:34;24.30;;;7.22;;
73850;SDS011;62190;51.548;5.688;2023-04-25T03:29:02;19.17;;;5.95;;
73850;SDS011;62190;51.548;5.688;2023-04-25T03:31:31;19.80;;;6.25;;
73850;SDS011;62190;51.548;5.688;2023-04-25T03:33:58;19.60;;;6.97;;
73850;SDS011;62190;51.548;5.688;2023-04-25T03:36:26;19.85;;;6.17;;
73850;SDS011;62190;51.548;5.688;2023-04-25T03:38:53;16.95;;;6.35;;
73850;SDS011;62190;51.548;5.688;2023-04-25T03:41:24;24.72;;;6.75;;
73850;SDS011;62190;51.548;5.688;2023-04-25T03:43:52;18.77;;;6.83;;
73850;SDS011;62190;51.548;5.688;2023-04-25T03:46:19;25.60;;;7.10;;
73850;SDS011;62190;51.548;5.688;2023-04-25T03:48:46;20.30;;;6.50;;
73850;SDS011;62190;51.548;5.688;2023-04-25T03:51:14;24.05;;;6.87;;
73850;SDS011;62190;51.548;5.688;2023-04-25T03:53:41;21.57;;;6.47;;
73850;SDS011;62190;51.548;5.688;2023-04-25T03:56:08;15.48;;;6.55;;
73850;SDS011;62190;51.548;5.688;2023-04-25T03:58:37;21.70;;;6.58;;
73850;SDS011;62190;51.548;5.688;2023-04-25T04:01:04;31.30;;;8.15;;
73850;SDS011;62190;51.548;5.688;2023-04-25T04:03:35;24.57;;;7.80;;
73850;SDS011;62190;51.548;5.688;2023-04-25T04:06:03;24.07;;;6.72;;
73850;SDS011;62190;51.548;5.688;2023-04-25T04:08:32;23.25;;;7.83;;
73850;SDS011;62190;51.548;5.688;2023-04-25T04:11:01;21.35;;;6.47;;
73850;SDS011;62190;51.548;5.688;2023-04-25T04:13:29;27.65;;;7.05;;
73850;SDS011;62190;51.548;5.688;2023-04-25T04:15:56;25.55;;;6.80;;
73850;SDS011;62190;51.548;5.688;2023-04-25T04:18:27;20.70;;;5.83;;
73850;SDS011;62190;51.548;5.688;2023-04-25T04:20:54;18.77;;;6.50;;
73850;SDS011;62190;51.548;5.688;2023-04-25T04:23:23;19.57;;;6.45;;
73850;SDS011;62190;51.548;5.688;2023-04-25T04:25:52;24.23;;;7.00;;
73850;SDS011;62190;51.548;5.688;2023-04-25T04:28:21;22.67;;;6.80;;
73850;SDS011;62190;51.548;5.688;2023-04-25T04:30:49;27.52;;;8.25;;
73850;SDS011;62190;51.548;5.688;2023-04-25T04:33:19;22.07;;;6.53;;
73850;SDS011;62190;51.548;5.688;2023-04-25T04:35:50;21.12;;;7.62;;
73850;SDS011;62190;51.548;5.688;2023-04-25T04:38:21;21.02;;;7.67;;
73850;SDS011;62190;51.548;5.688;2023-04-25T04:40:49;21.30;;;6.75;;
73850;SDS011;62190;51.548;5.688;2023-04-25T04:43:19;25.30;;;7.30;;
73850;SDS011;62190;51.548;5.688;2023-04-25T04:45:48;26.30;;;7.20;;
73850;SDS011;62190;51.548;5.688;2023-04-25T04:48:16;23.38;;;7.62;;
73850;SDS011;62190;51.548;5.688;2023-04-25T04:50:46;23.57;;;8.95;;
73850;SDS011;62190;51.548;5.688;2023-04-25T04:53:14;21.68;;;7.58;;
73850;SDS011;62190;51.548;5.688;2023-04-25T04:55:41;25.05;;;7.50;;
73850;SDS011;62190;51.548;5.688;2023-04-25T04:58:08;31.05;;;7.28;;
73850;SDS011;62190;51.548;5.688;2023-04-25T05:00:36;22.85;;;7.65;;
73850;SDS011;62190;51.548;5.688;2023-04-25T05:03:05;19.00;;;6.85;;
73850;SDS011;62190;51.548;5.688;2023-04-25T05:05:34;31.30;;;8.55;;
73850;SDS011;62190;51.548;5.688;2023-04-25T05:08:03;20.52;;;7.70;;
73850;SDS011;62190;51.548;5.688;2023-04-25T05:10:30;22.37;;;7.60;;
73850;SDS011;62190;51.548;5.688;2023-04-25T05:12:59;23.80;;;8.10;;
73850;SDS011;62190;51.548;5.688;2023-04-25T05:15:28;16.05;;;8.13;;
73850;SDS011;62190;51.548;5.688;2023-04-25T05:17:55;17.05;;;6.20;;
73850;SDS011;62190;51.548;5.688;2023-04-25T05:20:25;15.05;;;5.35;;
73850;SDS011;62190;51.548;5.688;2023-04-25T05:22:54;17.57;;;6.12;;
73850;SDS011;62190;51.548;5.688;2023-04-25T05:25:21;19.55;;;4.72;;
73850;SDS011;62190;51.548;5.688;2023-04-25T05:27:49;12.28;;;4.87;;
73850;SDS011;62190;51.548;5.688;2023-04-25T05:30:17;16.17;;;4.75;;
73850;SDS011;62190;51.548;5.688;2023-04-25T05:32:45;15.08;;;5.42;;
73850;SDS011;62190;51.548;5.688;2023-04-25T05:35:13;9.85;;;4.15;;
73850;SDS011;62190;51.548;5.688;2023-04-25T05:37:40;11.65;;;4.70;;
73850;SDS011;62190;51.548;5.688;2023-04-25T05:40:08;19.60;;;6.62;;
73850;SDS011;62190;51.548;5.688;2023-04-25T05:42:35;16.70;;;4.42;;
73850;SDS011;62190;51.548;5.688;2023-04-25T05:45:03;13.95;;;4.35;;
73850;SDS011;62190;51.548;5.688;2023-04-25T05:47:31;17.15;;;5.80;;
73850;SDS011;62190;51.548;5.688;2023-04-25T05:49:58;14.53;;;4.83;;
73850;SDS011;62190;51.548;5.688;2023-04-25T05:52:25;11.70;;;4.50;;
73850;SDS011;62190;51.548;5.688;2023-04-25T05:54:52;17.40;;;4.70;;
73850;SDS011;62190;51.548;5.688;2023-04-25T05:57:23;15.58;;;4.20;;
73850;SDS011;62190;51.548;5.688;2023-04-25T05:59:52;12.00;;;4.10;;
73850;SDS011;62190;51.548;5.688;2023-04-25T06:02:20;10.95;;;3.77;;
73850;SDS011;62190;51.548;5.688;2023-04-25T06:04:49;17.60;;;4.25;;
73850;SDS011;62190;51.548;5.688;2023-04-25T06:07:17;10.50;;;4.08;;
73850;SDS011;62190;51.548;5.688;2023-04-25T06:09:46;10.72;;;3.80;;
73850;SDS011;62190;51.548;5.688;2023-04-25T06:12:14;13.98;;;3.30;;
73850;SDS011;62190;51.548;5.688;2023-04-25T06:14:41;11.28;;;2.90;;
73850;SDS011;62190;51.548;5.688;2023-04-25T06:17:08;11.45;;;2.83;;
73850;SDS011;62190;51.548;5.688;2023-04-25T06:19:35;9.50;;;3.30;;
73850;SDS011;62190;51.548;5.688;2023-04-25T06:22:03;14.63;;;3.33;;
73850;SDS011;62190;51.548;5.688;2023-04-25T06:24:30;8.18;;;2.70;;
73850;SDS011;62190;51.548;5.688;2023-04-25T06:26:57;8.03;;;2.98;;
73850;SDS011;62190;51.548;5.688;2023-04-25T06:29:25;9.10;;;2.87;;
73850;SDS011;62190;51.548;5.688;2023-04-25T06:31:53;8.45;;;3.15;;
73850;SDS011;62190;51.548;5.688;2023-04-25T06:34:20;10.48;;;3.02;;
73850;SDS011;62190;51.548;5.688;2023-04-25T06:36:47;10.60;;;3.47;;
73850;SDS011;62190;51.548;5.688;2023-04-25T06:39:15;9.53;;;2.67;;
73850;SDS011;62190;51.548;5.688;2023-04-25T06:41:42;8.60;;;2.70;;
73850;SDS011;62190;51.548;5.688;2023-04-25T06:44:09;11.40;;;2.35;;
73850;SDS011;62190;51.548;5.688;2023-04-25T06:46:36;9.45;;;2.47;;
73850;SDS011;62190;51.548;5.688;2023-04-25T06:49:04;10.88;;;3.30;;
73850;SDS011;62190;51.548;5.688;2023-04-25T06:51:31;8.40;;;2.50;;
73850;SDS011;62190;51.548;5.688;2023-04-25T06:53:59;9.38;;;2.15;;
73850;SDS011;62190;51.548;5.688;2023-04-25T06:56:26;9.43;;;1.72;;
73850;SDS011;62190;51.548;5.688;2023-04-25T06:58:56;10.68;;;3.27;;
73850;SDS011;62190;51.548;5.688;2023-04-25T07:01:23;7.65;;;2.17;;
73850;SDS011;62190;51.548;5.688;2023-04-25T07:03:51;7.62;;;2.08;;
73850;SDS011;62190;51.548;5.688;2023-04-25T07:06:18;7.30;;;2.08;;
73850;SDS011;62190;51.548;5.688;2023-04-25T07:08:45;11.03;;;2.62;;
73850;SDS011;62190;51.548;5.688;2023-04-25T07:11:13;10.18;;;1.92;;
73850;SDS011;62190;51.548;5.688;2023-04-25T07:13:40;7.80;;;1.90;;
73850;SDS011;62190;51.548;5.688;2023-04-25T07:16:07;6.25;;;1.52;;
73850;SDS011;62190;51.548;5.688;2023-04-25T07:18:35;6.58;;;2.00;;
73850;SDS011;62190;51.548;5.688;2023-04-25T07:21:02;5.87;;;1.47;;
73850;SDS011;62190;51.548;5.688;2023-04-25T07:23:29;10.80;;;2.70;;
73850;SDS011;62190;51.548;5.688;2023-04-25T07:25:57;5.65;;;1.62;;
73850;SDS011;62190;51.548;5.688;2023-04-25T07:28:24;7.75;;;2.02;;
73850;SDS011;62190;51.548;5.688;2023-04-25T07:30:51;7.37;;;2.30;;
73850;SDS011;62190;51.548;5.688;2023-04-25T07:33:19;5.37;;;2.02;;
73850;SDS011;62190;51.548;5.688;2023-04-25T07:35:46;9.18;;;2.25;;
73850;SDS011;62190;51.548;5.688;2023-04-25T07:38:13;10.10;;;2.58;;
73850;SDS011;62190;51.548;5.688;2023-04-25T07:40:41;10.38;;;2.40;;
73850;SDS011;62190;51.548;5.688;2023-04-25T07:43:08;5.17;;;1.30;;
73850;SDS011;62190;51.548;5.688;2023-04-25T07:45:37;7.00;;;2.27;;
73850;SDS011;62190;51.548;5.688;2023-04-25T07:48:04;10.50;;;1.98;;
73850;SDS011;62190;51.548;5.688;2023-04-25T07:50:32;5.72;;;1.70;;
73850;SDS011;62190;51.548;5.688;2023-04-25T07:52:59;5.28;;;1.87;;
73850;SDS011;62190;51.548;5.688;2023-04-25T07:55:26;6.35;;;2.08;;
73850;SDS011;62190;51.548;5.688;2023-04-25T07:57:54;6.25;;;1.52;;
73850;SDS011;62190;51.548;5.688;2023-04-25T08:00:21;5.33;;;1.62;;
73850;SDS011;62190;51.548;5.688;2023-04-25T08:02:48;5.08;;;1.35;;
73850;SDS011;62190;51.548;5.688;2023-04-25T08:05:17;7.72;;;1.92;;
73850;SDS011;62190;51.548;5.688;2023-04-25T08:07:45;10.98;;;2.50;;
73850;SDS011;62190;51.548;5.688;2023-04-25T08:10:12;7.30;;;1.98;;
73850;SDS011;62190;51.548;5.688;2023-04-25T08:12:40;4.92;;;1.55;;
73850;SDS011;62190;51.548;5.688;2023-04-25T08:15:07;7.05;;;1.42;;
73850;SDS011;62190;51.548;5.688;2023-04-25T08:17:35;6.10;;;1.45;;
73850;SDS011;62190;51.548;5.688;2023-04-25T08:20:02;6.65;;;1.40;;
73850;SDS011;62190;51.548;5.688;2023-04-25T08:22:31;8.73;;;1.75;;
73850;SDS011;62190;51.548;5.688;2023-04-25T08:24:59;9.75;;;1.98;;
73850;SDS011;62190;51.548;5.688;2023-04-25T08:27:26;9.45;;;1.27;;
73850;SDS011;62190;51.548;5.688;2023-04-25T08:29:54;7.58;;;1.57;;
73850;SDS011;62190;51.548;5.688;2023-04-25T08:32:21;11.63;;;2.05;;
73850;SDS011;62190;51.548;5.688;2023-04-25T08:34:48;6.80;;;1.20;;
73850;SDS011;62190;51.548;5.688;2023-04-25T08:37:17;7.72;;;1.10;;
73850;SDS011;62190;51.548;5.688;2023-04-25T08:39:45;7.72;;;1.52;;
73850;SDS011;62190;51.548;5.688;2023-04-25T08:42:13;7.08;;;1.20;;
73850;SDS011;62190;51.548;5.688;2023-04-25T08:44:41;7.30;;;1.25;;
73850;SDS011;62190;51.548;5.688;2023-04-25T08:47:09;6.45;;;1.35;;
73850;SDS011;62190;51.548;5.688;2023-04-25T08:49:36;6.62;;;1.17;;
73850;SDS011;62190;51.548;5.688;2023-04-25T08:52:04;9.35;;;1.40;;
73850;SDS011;62190;51.548;5.688;2023-04-25T08:54:32;6.33;;;1.60;;
73850;SDS011;62190;51.548;5.688;2023-04-25T08:57:00;8.58;;;1.37;;
73850;SDS011;62190;51.548;5.688;2023-04-25T08:59:32;9.60;;;1.47;;
73850;SDS011;62190;51.548;5.688;2023-04-25T09:02:00;7.30;;;1.37;;
73850;SDS011;62190;51.548;5.688;2023-04-25T09:04:27;12.68;;;2.52;;
73850;SDS011;62190;51.548;5.688;2023-04-25T09:06:56;9.90;;;1.60;;
73850;SDS011;62190;51.548;5.688;2023-04-25T09:09:25;11.57;;;1.60;;
73850;SDS011;62190;51.548;5.688;2023-04-25T09:11:52;8.78;;;1.40;;
73850;SDS011;62190;51.548;5.688;2023-04-25T09:14:21;6.03;;;1.32;;
73850;SDS011;62190;51.548;5.688;2023-04-25T09:19:30;5.20;;;1.25;;
73850;SDS011;62190;51.548;5.688;2023-04-25T09:22:01;10.20;;;1.75;;
73850;SDS011;62190;51.548;5.688;2023-04-25T09:24:37;5.30;;;1.22;;
73850;SDS011;62190;51.548;5.688;2023-04-25T09:27:10;10.68;;;1.60;;
73850;SDS011;62190;51.548;5.688;2023-04-25T09:29:39;9.65;;;1.98;;
73850;SDS011;62190;51.548;5.688;2023-04-25T09:32:20;5.55;;;1.20;;
73850;SDS011;62190;51.548;5.688;2023-04-25T09:34:49;5.05;;;1.62;;
73850;SDS011;62190;51.548;5.688;2023-04-25T09:37:19;12.35;;;2.10;;
73850;SDS011;62190;51.548;5.688;2023-04-25T09:39:53;7.95;;;1.52;;
73850;SDS011;62190;51.548;5.688;2023-04-25T09:42:27;6.70;;;1.40;;
73850;SDS011;62190;51.548;5.688;2023-04-25T09:44:57;4.65;;;1.10;;
73850;SDS011;62190;51.548;5.688;2023-04-25T09:47:25;8.53;;;1.47;;
73850;SDS011;62190;51.548;5.688;2023-04-25T09:49:54;3.98;;;0.95;;
73850;SDS011;62190;51.548;5.688;2023-04-25T09:52:22;6.30;;;1.00;;
73850;SDS011;62190;51.548;5.688;2023-04-25T09:54:50;4.20;;;1.10;;
73850;SDS011;62190;51.548;5.688;2023-04-25T09:57:19;3.15;;;0.78;;
73850;SDS011;62190;51.548;5.688;2023-04-25T09:59:51;2.85;;;0.78;;
73850;SDS011;62190;51.548;5.688;2023-04-25T10:02:23;3.17;;;0.70;;
73850;SDS011;62190;51.548;5.688;2023-04-25T10:04:52;3.92;;;3.27;;
73850;SDS011;62190;51.548;5.688;2023-04-25T10:07:25;4.60;;;1.25;;
73850;SDS011;62190;51.548;5.688;2023-04-25T10:09:58;2.10;;;0.70;;
73850;SDS011;62190;51.548;5.688;2023-04-25T10:12:28;3.73;;;0.80;;
73850;SDS011;62190;51.548;5.688;2023-04-25T10:14:59;2.20;;;0.60;;
73850;SDS011;62190;51.548;5.688;2023-04-25T10:17:27;1.98;;;0.90;;
73850;SDS011;62190;51.548;5.688;2023-04-25T10:19:54;5.00;;;0.80;;
73850;SDS011;62190;51.548;5.688;2023-04-25T10:22:32;3.27;;;0.70;;
73850;SDS011;62190;51.548;5.688;2023-04-25T10:25:01;4.17;;;0.82;;
73850;SDS011;62190;51.548;5.688;2023-04-25T10:27:33;3.58;;;0.75;;
73850;SDS011;62190;51.548;5.688;2023-04-25T10:30:05;4.55;;;0.80;;
73850;SDS011;62190;51.548;5.688;2023-04-25T10:32:38;3.98;;;1.10;;
73850;SDS011;62190;51.548;5.688;2023-04-25T10:35:15;7.08;;;0.88;;
73850;SDS011;62190;51.548;5.688;2023-04-25T10:40:31;2.98;;;0.72;;
73850;SDS011;62190;51.548;5.688;2023-04-25T10:45:52;3.70;;;0.90;;
73850;SDS011;62190;51.548;5.688;2023-04-25T10:48:26;4.17;;;0.80;;
73850;SDS011;62190;51.548;5.688;2023-04-25T10:51:09;2.83;;;0.90;;
73850;SDS011;62190;51.548;5.688;2023-04-25T10:53:38;3.50;;;1.10;;
73850;SDS011;62190;51.548;5.688;2023-04-25T10:58:48;4.95;;;1.20;;
73850;SDS011;62190;51.548;5.688;2023-04-25T11:01:19;4.10;;;0.80;;
73850;SDS011;62190;51.548;5.688;2023-04-25T11:03:48;4.95;;;1.05;;
73850;SDS011;62190;51.548;5.688;2023-04-25T11:06:22;4.20;;;1.30;;
73850;SDS011;62190;51.548;5.688;2023-04-25T11:08:55;6.25;;;0.98;;
73850;SDS011;62190;51.548;5.688;2023-04-25T11:11:22;3.40;;;1.02;;
73850;SDS011;62190;51.548;5.688;2023-04-25T11:13:49;9.78;;;1.30;;
73850;SDS011;62190;51.548;5.688;2023-04-25T11:16:18;6.47;;;1.00;;
73850;SDS011;62190;51.548;5.688;2023-04-25T11:18:45;3.52;;;0.80;;
73850;SDS011;62190;51.548;5.688;2023-04-25T11:21:13;8.63;;;1.70;;
73850;SDS011;62190;51.548;5.688;2023-04-25T11:23:40;7.55;;;1.72;;
73850;SDS011;62190;51.548;5.688;2023-04-25T11:26:09;8.23;;;1.82;;
73850;SDS011;62190;51.548;5.688;2023-04-25T11:28:36;3.65;;;1.05;;
73850;SDS011;62190;51.548;5.688;2023-04-25T11:31:07;7.08;;;1.17;;
73850;SDS011;62190;51.548;5.688;2023-04-25T11:33:36;3.65;;;0.95;;
73850;SDS011;62190;51.548;5.688;2023-04-25T11:38:44;3.05;;;0.90;;
73850;SDS011;62190;51.548;5.688;2023-04-25T11:41:12;4.15;;;0.90;;
73850;SDS011;62190;51.548;5.688;2023-04-25T11:43:39;4.45;;;0.95;;
73850;SDS011;62190;51.548;5.688;2023-04-25T11:46:07;2.72;;;0.70;;
73850;SDS011;62190;51.548;5.688;2023-04-25T11:48:38;4.67;;;0.88;;
73850;SDS011;62190;51.548;5.688;2023-04-25T11:51:05;9.95;;;1.30;;
73850;SDS011;62190;51.548;5.688;2023-04-25T11:53:33;7.08;;;1.20;;
73850;SDS011;62190;51.548;5.688;2023-04-25T11:56:00;6.12;;;1.00;;
73850;SDS011;62190;51.548;5.688;2023-04-25T11:58:28;5.80;;;1.05;;
73850;SDS011;62190;51.548;5.688;2023-04-25T12:00:55;4.37;;;0.93;;
73850;SDS011;62190;51.548;5.688;2023-04-25T12:03:25;5.65;;;1.37;;
73850;SDS011;62190;51.548;5.688;2023-04-25T12:05:54;7.40;;;2.17;;
73850;SDS011;62190;51.548;5.688;2023-04-25T12:08:24;2.20;;;0.50;;
73850;SDS011;62190;51.548;5.688;2023-04-25T12:10:52;5.20;;;0.80;;
73850;SDS011;62190;51.548;5.688;2023-04-25T12:13:26;3.90;;;1.15;;
73850;SDS011;62190;51.548;5.688;2023-04-25T12:15:54;5.15;;;0.80;;
73850;SDS011;62190;51.548;5.688;2023-04-25T12:18:27;2.02;;;0.82;;
73850;SDS011;62190;51.548;5.688;2023-04-25T12:20:54;5.60;;;1.10;;
73850;SDS011;62190;51.548;5.688;2023-04-25T12:23:25;3.42;;;0.70;;
73850;SDS011;62190;51.548;5.688;2023-04-25T12:25:53;3.98;;;1.07;;
73850;SDS011;62190;51.548;5.688;2023-04-25T12:28:22;3.10;;;0.60;;
73850;SDS011;62190;51.548;5.688;2023-04-25T12:30:53;2.02;;;0.60;;
73850;SDS011;62190;51.548;5.688;2023-04-25T12:33:23;2.40;;;0.55;;
73850;SDS011;62190;51.548;5.688;2023-04-25T12:35:52;4.53;;;1.05;;
73850;SDS011;62190;51.548;5.688;2023-04-25T12:38:34;2.40;;;0.70;;
73850;SDS011;62190;51.548;5.688;2023-04-25T12:41:04;3.33;;;0.67;;
73850;SDS011;62190;51.548;5.688;2023-04-25T12:43:32;2.80;;;0.60;;
73850;SDS011;62190;51.548;5.688;2023-04-25T12:46:00;4.37;;;1.00;;
73850;SDS011;62190;51.548;5.688;2023-04-25T12:48:27;0.95;;;0.30;;
73850;SDS011;62190;51.548;5.688;2023-04-25T12:50:55;2.25;;;0.40;;
73850;SDS011;62190;51.548;5.688;2023-04-25T12:53:22;1.00;;;0.40;;
73850;SDS011;62190;51.548;5.688;2023-04-25T12:55:50;1.00;;;0.30;;
73850;SDS011;62190;51.548;5.688;2023-04-25T12:58:22;4.67;;;0.68;;
73850;SDS011;62190;51.548;5.688;2023-04-25T13:00:50;1.95;;;0.88;;
73850;SDS011;62190;51.548;5.688;2023-04-25T13:03:17;3.08;;;0.85;;
73850;SDS011;62190;51.548;5.688;2023-04-25T13:05:45;2.90;;;0.60;;
73850;SDS011;62190;51.548;5.688;2023-04-25T13:08:12;3.92;;;0.93;;
73850;SDS011;62190;51.548;5.688;2023-04-25T13:10:39;3.33;;;1.00;;
73850;SDS011;62190;51.548;5.688;2023-04-25T13:13:09;4.83;;;1.00;;
73850;SDS011;62190;51.548;5.688;2023-04-25T13:15:36;6.37;;;0.90;;
73850;SDS011;62190;51.548;5.688;2023-04-25T13:18:03;3.25;;;1.32;;
73850;SDS011;62190;51.548;5.688;2023-04-25T13:20:34;5.03;;;1.07;;
73850;SDS011;62190;51.548;5.688;2023-04-25T13:23:01;5.85;;;1.15;;
73850;SDS011;62190;51.548;5.688;2023-04-25T13:25:32;4.12;;;1.00;;
73850;SDS011;62190;51.548;5.688;2023-04-25T13:27:59;7.95;;;1.87;;
73850;SDS011;62190;51.548;5.688;2023-04-25T13:30:26;4.08;;;0.70;;
73850;SDS011;62190;51.548;5.688;2023-04-25T13:32:54;3.95;;;1.35;;
73850;SDS011;62190;51.548;5.688;2023-04-25T13:35:22;2.70;;;0.70;;
73850;SDS011;62190;51.548;5.688;2023-04-25T13:37:50;2.87;;;0.80;;
73850;SDS011;62190;51.548;5.688;2023-04-25T13:40:17;4.60;;;0.93;;
73850;SDS011;62190;51.548;5.688;2023-04-25T13:42:44;5.37;;;1.20;;
73850;SDS011;62190;51.548;5.688;2023-04-25T13:45:12;5.90;;;1.20;;
73850;SDS011;62190;51.548;5.688;2023-04-25T13:47:39;5.70;;;1.52;;
73850;SDS011;62190;51.548;5.688;2023-04-25T13:50:06;6.95;;;1.45;;
73850;SDS011;62190;51.548;5.688;2023-04-25T13:52:35;7.80;;;1.32;;
73850;SDS011;62190;51.548;5.688;2023-04-25T13:55:02;3.70;;;1.20;;
73850;SDS011;62190;51.548;5.688;2023-04-25T13:57:31;4.50;;;0.80;;
73850;SDS011;62190;51.548;5.688;2023-04-25T13:59:59;6.12;;;0.93;;
73850;SDS011;62190;51.548;5.688;2023-04-25T14:02:29;5.28;;;1.07;;
73850;SDS011;62190;51.548;5.688;2023-04-25T14:04:56;4.40;;;1.15;;
73850;SDS011;62190;51.548;5.688;2023-04-25T14:07:23;3.08;;;1.12;;
73850;SDS011;62190;51.548;5.688;2023-04-25T14:09:52;3.15;;;0.70;;
73850;SDS011;62190;51.548;5.688;2023-04-25T14:12:19;3.42;;;0.80;;
73850;SDS011;62190;51.548;5.688;2023-04-25T14:14:46;2.85;;;0.78;;
73850;SDS011;62190;51.548;5.688;2023-04-25T14:17:14;4.62;;;1.10;;
73850;SDS011;62190;51.548;5.688;2023-04-25T14:19:41;6.70;;;1.10;;
73850;SDS011;62190;51.548;5.688;2023-04-25T14:22:10;4.70;;;0.93;;
73850;SDS011;62190;51.548;5.688;2023-04-25T14:24:37;5.15;;;0.82;;
73850;SDS011;62190;51.548;5.688;2023-04-25T14:27:04;5.17;;;1.12;;
73850;SDS011;62190;51.548;5.688;2023-04-25T14:29:32;6.00;;;0.80;;
73850;SDS011;62190;51.548;5.688;2023-04-25T14:31:59;4.35;;;0.82;;
73850;SDS011;62190;51.548;5.688;2023-04-25T14:34:27;4.30;;;0.90;;
73850;SDS011;62190;51.548;5.688;2023-04-25T14:36:54;3.55;;;0.80;;
73850;SDS011;62190;51.548;5.688;2023-04-25T14:39:22;4.08;;;0.70;;
73850;SDS011;62190;51.548;5.688;2023-04-25T14:41:49;1.65;;;0.75;;
73850;SDS011;62190;51.548;5.688;2023-04-25T14:44:16;6.90;;;0.88;;
73850;SDS011;62190;51.548;5.688;2023-04-25T14:46:44;7.58;;;1.50;;
73850;SDS011;62190;51.548;5.688;2023-04-25T14:49:11;2.22;;;0.68;;
73850;SDS011;62190;51.548;5.688;2023-04-25T14:51:38;3.40;;;1.07;;
73850;SDS011;62190;51.548;5.688;2023-04-25T14:54:06;4.50;;;1.07;;
73850;SDS011;62190;51.548;5.688;2023-04-25T14:56:33;3.67;;;1.07;;
73850;SDS011;62190;51.548;5.688;2023-04-25T14:59:00;4.30;;;0.95;;
73850;SDS011;62190;51.548;5.688;2023-04-25T15:01:27;4.37;;;0.90;;